Time;durP1;ratioP1;P1;durP2;ratioP2;P2;SDS_P1;SDS_P2;PMS_P1;PMS_P2;Temp;Humidity;BMP_temperature;BMP_pressure;BME280_temperature;BME280_humidity;BME280_pressure;Samples;Min_cycle;Max_cycle;Signal;HPM_P1;HPM_P2
2023/12/07 00:00:14;;;;;;;;;;;;;;;10.56;80.67;99600.44;7361720;19;20006;-60
2023/12/07 00:02:40;;;;;;;;;;;;;;;10.56;80.38;99610.88;7355596;19;20203;-59
2023/12/07 00:05:05;;;;;;;;;;;;;;;10.57;80.41;99620.38;7365717;19;19929;-61
2023/12/07 00:07:30;;;;;;;;;;;;;;;10.59;80.55;99596.81;7366283;19;20369;-60
2023/12/07 00:09:56;;;;;;;;;;;;;;;10.60;80.35;99602.00;7357024;19;20516;-61
2023/12/07 00:12:21;;;;;;;;;;;;;;;10.59;80.61;99615.97;7360963;19;19915;-61
2023/12/07 00:14:46;;;;;;;;;;;;;;;10.60;80.86;99591.56;7360424;19;19946;-59
2023/12/07 00:17:12;;;;;;;;;;;;;;;10.62;80.45;99596.72;7366655;19;19938;-61
2023/12/07 00:19:37;;;;;;;;;;;;;;;10.62;80.40;99581.06;7363759;19;19991;-59
2023/12/07 00:22:02;;;;;;;;;;;;;;;10.62;80.88;99578.44;7363523;19;20549;-60
2023/12/07 00:24:28;;;;;;;;;;;;;;;10.62;80.57;99581.91;7358421;19;19910;-59
2023/12/07 00:26:54;;;;;;;;;;;;;;;10.63;80.35;99570.53;7362458;19;19926;-61
2023/12/07 00:29:19;;;;;;;;;;;;;;;10.63;80.27;99573.16;7361395;19;19918;-60
2023/12/07 00:31:44;;;;;;;;;;;;;;;10.63;80.43;99573.16;7361861;19;20010;-60
2023/12/07 00:34:09;;;;;;;;;;;;;;;10.65;80.77;99568.72;7362096;19;19915;-60
2023/12/07 00:36:35;;;;;;;;;;;;;;;10.65;80.91;99547.84;7360208;19;21005;-58
2023/12/07 00:39:00;;;;;;;;;;;;;;;10.67;80.49;99565.19;7360954;19;20263;-61
2023/12/07 00:41:25;;;;;;;;;;;;;;;10.68;80.75;99546.00;7366313;19;19946;-59
2023/12/07 00:43:51;;;;;;;;;;;;;;;10.68;80.84;99525.13;7358033;19;19926;-59
2023/12/07 00:46:16;;;;;;;;;;;;;;;10.70;80.73;99523.31;7361888;19;19930;-58
2023/12/07 00:48:41;;;;;;;;;;;;;;;10.69;80.62;99522.44;7361449;19;19918;-60
2023/12/07 00:51:07;;;;;;;;;;;;;;;10.69;80.69;99532.88;7363273;19;19926;-60
2023/12/07 00:53:32;;;;;;;;;;;;;;;10.69;80.99;99506.78;7359525;19;19918;-60
2023/12/07 00:55:57;;;;;;;;;;;;;;;10.70;80.69;99512.88;7365041;19;19927;-60
2023/12/07 00:58:22;;;;;;;;;;;;;;;10.70;80.89;99512.88;7364336;19;19946;-59
2023/12/07 01:00:48;;;;;;;;;;;;;;;10.70;80.90;99497.19;7365564;19;20645;-60
2023/12/07 01:03:13;;;;;;;;;;;;;;;10.71;80.57;99493.66;7362651;19;19914;-59
2023/12/07 01:05:38;;;;;;;;;;;;;;;10.71;80.48;99496.28;7365415;19;19926;-59
2023/12/07 01:08:04;;;;;;;;;;;;;;;10.71;80.70;99509.34;7360109;19;20683;-59
2023/12/07 01:10:29;;;;;;;;;;;;;;;10.71;80.64;99504.13;7363861;19;20343;-59
2023/12/07 01:12:55;;;;;;;;;;;;;;;10.71;80.96;99498.91;7369773;19;19914;-59
2023/12/07 01:15:20;;;;;;;;;;;;;;;10.73;80.94;99507.50;7360637;19;19926;-60
2023/12/07 01:17:45;;;;;;;;;;;;;;;10.73;80.79;99486.59;7362658;19;20357;-60
2023/12/07 01:20:12;;;;;;;;;;;;;;;10.72;80.59;99474.47;7359502;19;20028;-61
2023/12/07 01:22:39;;;;;;;;;;;;;;;10.74;80.73;99456.97;7363449;19;19927;-60
2023/12/07 01:25:05;;;;;;;;;;;;;;;10.73;80.93;99450.06;7357947;19;21053;-60
2023/12/07 01:27:31;;;;;;;;;;;;;;;10.74;80.84;99451.75;7360669;19;19955;-59
2023/12/07 01:29:56;;;;;;;;;;;;;;;10.74;80.81;99456.97;7361331;19;19926;-61
2023/12/07 01:32:21;;;;;;;;;;;;;;;10.74;80.65;99441.31;7360979;19;20364;-60
2023/12/07 01:34:47;;;;;;;;;;;;;;;10.74;80.92;99451.75;7362804;19;19922;-60
2023/12/07 01:37:12;;;;;;;;;;;;;;;10.74;80.73;99441.31;7361881;19;19918;-59
2023/12/07 01:39:37;;;;;;;;;;;;;;;10.74;80.92;99438.69;7363177;19;20343;-60
2023/12/07 01:42:03;;;;;;;;;;;;;;;10.74;80.69;99451.75;7361613;19;19952;-59
2023/12/07 01:44:28;;;;;;;;;;;;;;;10.73;80.77;99450.91;7360354;19;20575;-61
2023/12/07 01:46:54;;;;;;;;;;;;;;;10.74;80.90;99464.81;7363575;19;19947;-61
2023/12/07 01:49:19;;;;;;;;;;;;;;;10.74;80.65;99443.91;7363999;19;19915;-60
2023/12/07 01:51:45;;;;;;;;;;;;;;;10.75;81.05;99443.03;7361285;19;19921;-61
2023/12/07 01:54:10;;;;;;;;;;;;;;;10.75;81.11;99433.44;7363602;19;19986;-61
2023/12/07 01:56:36;;;;;;;;;;;;;;;10.75;80.88;99445.63;7356825;19;20371;-61
2023/12/07 01:59:01;;;;;;;;;;;;;;;10.76;80.87;99408.16;7362726;19;19929;-60
2023/12/07 02:01:27;;;;;;;;;;;;;;;10.76;80.67;99435.13;7361977;19;19918;-60
2023/12/07 02:03:52;;;;;;;;;;;;;;;10.76;81.00;99427.28;7360764;19;20342;-61
2023/12/07 02:06:18;;;;;;;;;;;;;;;10.77;80.72;99435.97;7364698;19;19914;-60
2023/12/07 02:08:43;;;;;;;;;;;;;;;10.77;80.68;99425.50;7360527;19;19938;-60
2023/12/07 02:11:09;;;;;;;;;;;;;;;10.76;81.07;99410.78;7361921;19;19927;-59
2023/12/07 02:13:35;;;;;;;;;;;;;;;10.76;80.96;99408.16;7357741;19;19944;-60
2023/12/07 02:16:04;;;;;;;;;;;;;;;10.76;80.98;99395.09;7361105;19;20335;-61
2023/12/07 02:18:52;;;;;;;;;;;;;;;10.77;81.09;99422.91;7362965;19;19923;-61
2023/12/07 02:21:21;;;;;;;;;;;;;;;10.78;81.14;99442.88;7362836;19;20680;-60
2023/12/07 02:23:50;;;;;;;;;;;;;;;10.78;80.86;99403.69;7360959;19;20607;-59
2023/12/07 02:26:18;;;;;;;;;;;;;;;10.78;80.84;99407.16;7361658;19;19915;-60
2023/12/07 02:28:43;;;;;;;;;;;;;;;10.79;80.76;99402.78;7359615;19;19964;-61
2023/12/07 02:31:08;;;;;;;;;;;;;;;10.78;80.70;99409.78;7360183;19;19917;-61
2023/12/07 02:33:34;;;;;;;;;;;;;;;10.80;81.00;99412.34;7357060;19;19927;-61
2023/12/07 02:35:59;;;;;;;;;;;;;;;10.80;80.97;99404.50;7360939;19;19915;-61
2023/12/07 02:38:26;;;;;;;;;;;;;;;10.80;81.10;99397.50;7360281;19;19946;-60
2023/12/07 02:40:53;;;;;;;;;;;;;;;10.82;81.09;99397.44;7359257;19;19938;-61
2023/12/07 02:43:19;;;;;;;;;;;;;;;10.81;81.19;99416.63;7361188;19;19929;-60
2023/12/07 02:45:44;;;;;;;;;;;;;;;10.82;80.97;99397.44;7357227;19;19926;-61
2023/12/07 02:48:09;;;;;;;;;;;;;;;10.84;81.10;99395.59;7354073;19;19938;-61
2023/12/07 02:50:35;;;;;;;;;;;;;;;10.82;81.16;99381.75;7356184;19;19939;-61
2023/12/07 02:53:00;;;;;;;;;;;;;;;10.84;81.22;99387.75;7361002;19;19929;-61
2023/12/07 02:55:25;;;;;;;;;;;;;;;10.85;81.32;99369.44;7360084;19;19941;-60
2023/12/07 02:57:51;;;;;;;;;;;;;;;10.86;81.28;99355.44;7353882;19;20449;-60
2023/12/07 03:00:16;;;;;;;;;;;;;;;10.88;81.34;99376.25;7361255;19;19923;-61
2023/12/07 03:02:42;;;;;;;;;;;;;;;10.89;80.97;99385.78;7363388;19;19911;-61
2023/12/07 03:05:07;;;;;;;;;;;;;;;10.90;81.25;99369.22;7363445;19;19919;-60
2023/12/07 03:07:33;;;;;;;;;;;;;;;10.89;80.96;99352.69;7363501;19;19914;-61
2023/12/07 03:09:58;;;;;;;;;;;;;;;10.90;81.17;99357.00;7347303;19;19921;-61
2023/12/07 03:12:23;;;;;;;;;;;;;;;10.91;81.17;99350.88;7357881;19;19925;-59
2023/12/07 03:14:49;;;;;;;;;;;;;;;10.94;81.03;99349.84;7369315;19;19922;-61
2023/12/07 03:17:14;;;;;;;;;;;;;;;10.95;81.04;99335.91;7368134;19;19960;-59
2023/12/07 03:19:40;;;;;;;;;;;;;;;10.96;81.00;99328.91;7362268;19;19930;-61
2023/12/07 03:22:08;;;;;;;;;;;;;;;10.97;81.36;99318.38;7359187;19;19919;-60
2023/12/07 03:24:34;;;;;;;;;;;;;;;10.99;81.47;99340.03;7360247;19;19933;-59
2023/12/07 03:26:59;;;;;;;;;;;;;;;11.02;81.10;99305.13;7361822;19;19919;-61
2023/12/07 03:29:25;;;;;;;;;;;;;;;11.02;81.45;99290.28;7362793;19;19922;-61
2023/12/07 03:31:50;;;;;;;;;;;;;;;11.04;81.11;99271.91;7360666;19;20007;-61
2023/12/07 03:34:15;;;;;;;;;;;;;;;11.06;81.29;99275.31;7361463;19;19945;-60
2023/12/07 03:36:42;;;;;;;;;;;;;;;11.06;81.40;99278.78;7361945;19;20342;-61
2023/12/07 03:39:07;;;;;;;;;;;;;;;11.09;81.49;99262.09;7369039;19;19982;-61
2023/12/07 03:41:32;;;;;;;;;;;;;;;11.10;81.21;99277.72;7356412;19;19918;-61
2023/12/07 03:43:58;;;;;;;;;;;;;;;11.12;81.31;99275.88;7360105;19;19926;-61
2023/12/07 03:46:23;;;;;;;;;;;;;;;11.15;81.21;99267.91;7359274;19;20621;-61
2023/12/07 03:48:48;;;;;;;;;;;;;;;11.17;81.42;99289.56;7365709;19;19942;-58
2023/12/07 03:51:16;;;;;;;;;;;;;;;11.18;81.38;99272.13;7369151;19;19946;-59
2023/12/07 03:53:41;;;;;;;;;;;;;;;11.21;81.63;99263.31;7369167;19;19946;-61
2023/12/07 03:56:06;;;;;;;;;;;;;;;11.23;81.56;99256.22;7364341;19;19919;-60
2023/12/07 03:58:32;;;;;;;;;;;;;;;11.24;81.52;99231.78;7369708;19;20347;-61
2023/12/07 04:00:57;;;;;;;;;;;;;;;11.25;81.59;99244.75;7362262;19;20308;-61
2023/12/07 04:03:22;;;;;;;;;;;;;;;11.27;81.38;99226.41;7369430;19;19911;-62
2023/12/07 04:05:47;;;;;;;;;;;;;;;11.29;81.50;99248.91;7365619;19;19944;-61
2023/12/07 04:08:13;;;;;;;;;;;;;;;11.30;81.37;99227.09;7366522;19;19919;-61
2023/12/07 04:10:38;;;;;;;;;;;;;;;11.32;81.72;99234.88;7367706;19;19930;-61
2023/12/07 04:13:03;;;;;;;;;;;;;;;11.32;81.65;99251.41;7364380;19;20398;-60
2023/12/07 04:15:28;;;;;;;;;;;;;;;11.34;81.66;99227.78;7360600;19;19946;-61
2023/12/07 04:17:54;;;;;;;;;;;;;;;11.35;81.69;99219.03;7339423;19;19918;-62
2023/12/07 04:20:19;;;;;;;;;;;;;;;11.35;81.61;99238.19;7356852;19;19918;-60
2023/12/07 04:22:45;;;;;;;;;;;;;;;11.37;81.41;99246.78;7365545;19;19987;-60
2023/12/07 04:25:10;;;;;;;;;;;;;;;11.40;81.31;99219.63;7366510;19;19948;-59
2023/12/07 04:27:36;;;;;;;;;;;;;;;11.41;81.79;99234.41;7366656;19;20351;-60
2023/12/07 04:30:01;;;;;;;;;;;;;;;11.42;81.42;99210.81;7360596;19;19922;-61
2023/12/07 04:32:26;;;;;;;;;;;;;;;11.44;81.40;99218.56;7373047;19;19926;-60
2023/12/07 04:34:52;;;;;;;;;;;;;;;11.45;81.76;99207.19;7368055;19;19923;-60
2023/12/07 04:37:18;;;;;;;;;;;;;;;11.47;81.43;99215.81;7366452;19;19919;-61
2023/12/07 04:39:43;;;;;;;;;;;;;;;11.48;81.76;99201.81;7373346;19;19986;-61
2023/12/07 04:42:08;;;;;;;;;;;;;;;11.51;81.38;99198.22;7361593;19;19947;-60
2023/12/07 04:44:33;;;;;;;;;;;;;;;11.52;81.58;99190.28;7366630;19;19911;-59
2023/12/07 04:46:59;;;;;;;;;;;;;;;11.54;81.60;99171.91;7367802;19;19926;-59
2023/12/07 04:49:24;;;;;;;;;;;;;;;11.55;81.57;99192.72;7362494;19;19923;-60
2023/12/07 04:51:49;;;;;;;;;;;;;;;11.56;81.71;99170.91;7372736;19;19949;-61
2023/12/07 04:54:14;;;;;;;;;;;;;;;11.58;81.37;99158.59;7375789;19;20454;-61
2023/12/07 04:56:42;;;;;;;;;;;;;;;11.59;81.35;99165.50;7353935;19;19922;-61
2023/12/07 04:59:09;;;;;;;;;;;;;;;11.62;81.59;99159.28;7364888;19;19946;-61
2023/12/07 05:01:37;;;;;;;;;;;;;;;11.62;81.24;99148.84;7363431;19;19930;-61
2023/12/07 05:04:03;;;;;;;;;;;;;;;11.65;81.60;99153.88;7368205;19;20762;-61
2023/12/07 05:06:29;;;;;;;;;;;;;;;11.66;81.42;99139.91;7365725;19;20340;-59
2023/12/07 05:08:54;;;;;;;;;;;;;;;11.66;81.75;99139.91;7363136;19;19921;-60
2023/12/07 05:11:20;;;;;;;;;;;;;;;11.67;81.62;99131.97;7369308;19;20672;-61
2023/12/07 05:13:45;;;;;;;;;;;;;;;11.68;81.17;99127.59;7347672;19;20244;-61
2023/12/07 05:16:10;;;;;;;;;;;;;;;11.65;81.25;99119.91;7369741;19;19923;-60
2023/12/07 05:18:36;;;;;;;;;;;;;;;11.72;81.69;99133.50;7367601;19;20000;-61
2023/12/07 05:21:01;;;;;;;;;;;;;;;11.73;81.43;99148.28;7368734;19;19922;-61
2023/12/07 05:23:26;;;;;;;;;;;;;;;11.74;81.44;99136.88;7359899;19;19919;-61
2023/12/07 05:25:52;;;;;;;;;;;;;;;11.74;81.24;99131.66;7365532;19;19946;-61
2023/12/07 05:28:17;;;;;;;;;;;;;;;11.76;81.63;99125.44;7353110;19;19926;-61
2023/12/07 05:30:42;;;;;;;;;;;;;;;11.77;81.34;99126.28;7367057;19;19947;-60
2023/12/07 05:33:08;;;;;;;;;;;;;;;11.80;81.35;99126.09;7366538;19;20010;-60
2023/12/07 05:35:33;;;;;;;;;;;;;;;11.81;81.36;99128.66;7365670;19;19937;-60
2023/12/07 05:37:58;;;;;;;;;;;;;;;11.83;81.68;99120.75;7370604;19;19915;-61
2023/12/07 05:40:24;;;;;;;;;;;;;;;11.83;81.49;99110.28;7366239;19;20918;-61
2023/12/07 05:42:50;;;;;;;;;;;;;;;11.85;81.59;99103.19;7361803;19;19978;-61
2023/12/07 05:45:15;;;;;;;;;;;;;;;11.87;81.08;99103.97;7363278;19;20615;-62
2023/12/07 05:47:41;;;;;;;;;;;;;;;11.87;81.52;99109.19;7363871;19;19923;-61
2023/12/07 05:50:06;;;;;;;;;;;;;;;11.88;81.51;99097.81;7361240;19;19919;-60
2023/12/07 05:52:32;;;;;;;;;;;;;;;11.91;81.13;99089.78;7366240;19;20378;-60
2023/12/07 05:54:57;;;;;;;;;;;;;;;11.90;81.36;99090.72;7364999;19;19923;-61
2023/12/07 05:57:22;;;;;;;;;;;;;;;11.91;81.42;99081.94;7370244;19;19935;-62
2023/12/07 05:59:47;;;;;;;;;;;;;;;11.92;80.85;99070.56;7367076;19;19923;-61
2023/12/07 06:02:13;;;;;;;;;;;;;;;11.92;81.24;99075.78;7359135;19;20663;-61
2023/12/07 06:04:38;;;;;;;;;;;;;;;11.92;81.18;99067.94;7365104;19;19934;-61
2023/12/07 06:07:03;;;;;;;;;;;;;;;11.93;81.12;99064.41;7360194;19;19950;-61
2023/12/07 06:09:28;;;;;;;;;;;;;;;11.92;81.21;99054.88;7363211;19;19914;-60
2023/12/07 06:11:54;;;;;;;;;;;;;;;11.92;81.27;99053.09;7364843;19;21717;-61
2023/12/07 06:14:19;;;;;;;;;;;;;;;11.92;81.26;99041.78;7362772;19;19915;-61
2023/12/07 06:16:44;;;;;;;;;;;;;;;11.93;81.06;99038.25;7354618;19;19953;-61
2023/12/07 06:19:10;;;;;;;;;;;;;;;11.93;80.96;99035.63;7363973;19;19922;-60
2023/12/07 06:21:35;;;;;;;;;;;;;;;11.94;81.17;99050.38;7363348;19;19947;-62
2023/12/07 06:24:00;;;;;;;;;;;;;;;11.94;80.98;99037.31;7360434;19;19923;-61
2023/12/07 06:26:26;;;;;;;;;;;;;;;11.89;81.19;99018.41;7353917;19;20356;-61
2023/12/07 06:28:51;;;;;;;;;;;;;;;11.97;81.06;99018.84;7364359;19;19927;-61
2023/12/07 06:31:19;;;;;;;;;;;;;;;11.97;81.07;99021.44;7366058;19;19914;-61
2023/12/07 06:33:45;;;;;;;;;;;;;;;11.98;80.92;99028.38;7371321;19;20331;-61
2023/12/07 06:36:10;;;;;;;;;;;;;;;11.99;80.99;99011.72;7362238;19;19922;-59
2023/12/07 06:38:36;;;;;;;;;;;;;;;12.01;81.43;99020.31;7365034;19;19921;-61
2023/12/07 06:41:01;;;;;;;;;;;;;;;12.04;81.57;99008.88;7359174;19;19922;-60
2023/12/07 06:43:26;;;;;;;;;;;;;;;12.06;81.64;99001.75;7365816;19;20772;-62
2023/12/07 06:45:52;;;;;;;;;;;;;;;12.08;81.32;99000.75;7350332;19;19923;-61
2023/12/07 06:48:18;;;;;;;;;;;;;;;12.10;81.16;99006.75;7360094;19;20266;-61
2023/12/07 06:50:43;;;;;;;;;;;;;;;12.13;81.52;99001.34;7361984;19;19915;-61
2023/12/07 06:53:08;;;;;;;;;;;;;;;12.15;81.25;98999.47;7359886;19;19927;-60
2023/12/07 06:55:33;;;;;;;;;;;;;;;12.16;81.41;99009.00;7359842;19;19926;-60
2023/12/07 06:57:59;;;;;;;;;;;;;;;12.18;81.17;98996.69;7354824;19;19922;-61
2023/12/07 07:00:24;;;;;;;;;;;;;;;12.20;81.57;98986.97;7363168;19;19914;-61
2023/12/07 07:02:49;;;;;;;;;;;;;;;12.22;81.41;98972.97;7361539;19;19919;-61
2023/12/07 07:05:15;;;;;;;;;;;;;;;12.22;81.09;98963.34;7360816;19;19919;-61
2023/12/07 07:07:41;;;;;;;;;;;;;;;12.26;81.09;98961.38;7360623;19;19919;-61
2023/12/07 07:10:09;;;;;;;;;;;;;;;12.26;81.45;98956.16;7363778;19;20286;-62
2023/12/07 07:12:34;;;;;;;;;;;;;;;12.27;81.44;98936.94;7361808;19;20403;-61
2023/12/07 07:15:00;;;;;;;;;;;;;;;12.28;81.19;98941.22;7358532;19;19919;-61
2023/12/07 07:17:25;;;;;;;;;;;;;;;12.30;81.06;98947.19;7363085;19;19952;-60
2023/12/07 07:19:50;;;;;;;;;;;;;;;12.30;81.06;98936.72;7351200;19;19915;-61
2023/12/07 07:22:15;;;;;;;;;;;;;;;12.32;81.02;98921.81;7367962;19;19926;-61
2023/12/07 07:24:41;;;;;;;;;;;;;;;12.34;81.36;98914.69;7363011;19;19926;-61
2023/12/07 07:27:06;;;;;;;;;;;;;;;12.36;81.08;98920.66;7367513;19;19931;-61
2023/12/07 07:29:32;;;;;;;;;;;;;;;12.36;81.60;98921.50;7368600;19;19923;-60
2023/12/07 07:31:57;;;;;;;;;;;;;;;12.39;81.44;98920.50;7365120;19;19939;-61
2023/12/07 07:34:22;;;;;;;;;;;;;;;12.41;81.43;98934.31;7366279;19;19914;-60
2023/12/07 07:36:49;;;;;;;;;;;;;;;12.43;81.60;98927.25;7368137;19;19951;-60
2023/12/07 07:39:15;;;;;;;;;;;;;;;12.46;81.66;98921.81;7363127;19;19922;-61
2023/12/07 07:41:40;;;;;;;;;;;;;;;12.46;81.58;98912.19;7366965;19;20371;-61
2023/12/07 07:44:05;;;;;;;;;;;;;;;12.49;81.17;98911.16;7361827;19;19919;-61
2023/12/07 07:46:30;;;;;;;;;;;;;;;12.51;81.68;98919.75;7351320;19;19935;-61
2023/12/07 07:48:56;;;;;;;;;;;;;;;12.53;81.29;98912.69;7367582;19;19932;-59
2023/12/07 07:51:21;;;;;;;;;;;;;;;12.53;81.66;98923.16;7369101;19;20800;-61
2023/12/07 07:53:46;;;;;;;;;;;;;;;12.56;81.29;98927.34;7319915;19;19945;-61
2023/12/07 07:56:11;;;;;;;;;;;;;;;12.57;81.42;98923.78;7365554;19;19934;-61
2023/12/07 07:58:37;;;;;;;;;;;;;;;12.58;81.56;98931.56;7368198;19;19966;-61
2023/12/07 08:01:03;;;;;;;;;;;;;;;12.59;81.06;98928.03;7365364;19;19938;-61
2023/12/07 08:03:28;;;;;;;;;;;;;;;12.59;81.07;98920.16;7342764;19;19918;-60
2023/12/07 08:05:53;;;;;;;;;;;;;;;12.60;81.44;98914.00;7372990;19;19927;-61
2023/12/07 08:08:19;;;;;;;;;;;;;;;12.61;81.10;98899.13;7375557;19;19956;-61
2023/12/07 08:10:44;;;;;;;;;;;;;;;12.61;81.36;98888.63;7370698;19;19911;-60
2023/12/07 08:13:09;;;;;;;;;;;;;;;12.60;80.83;98890.41;7366650;19;20556;-61
2023/12/07 08:15:35;;;;;;;;;;;;;;;12.62;81.13;98896.44;7368646;19;20249;-61
2023/12/07 08:18:00;;;;;;;;;;;;;;;12.62;81.23;98887.69;7368892;19;19941;-60
2023/12/07 08:20:26;;;;;;;;;;;;;;;12.62;81.26;98885.94;7365151;19;19922;-60
2023/12/07 08:22:51;;;;;;;;;;;;;;;12.62;81.22;98875.47;7365287;19;20339;-61
2023/12/07 08:25:17;;;;;;;;;;;;;;;12.64;81.06;98870.13;7366545;19;19998;-62
2023/12/07 08:27:44;;;;;;;;;;;;;;;12.63;80.91;98877.16;7365158;19;20670;-61
2023/12/07 08:30:10;;;;;;;;;;;;;;;12.64;81.25;98857.03;7367213;19;19930;-61
2023/12/07 08:32:36;;;;;;;;;;;;;;;12.64;80.99;98844.78;7364967;19;19942;-61
2023/12/07 08:35:01;;;;;;;;;;;;;;;12.65;81.27;98859.56;7364435;19;19937;-61
2023/12/07 08:37:26;;;;;;;;;;;;;;;12.67;81.42;98849.84;7366295;19;19915;-61
2023/12/07 08:39:51;;;;;;;;;;;;;;;12.68;81.39;98854.16;7367336;19;19926;-60
2023/12/07 08:42:17;;;;;;;;;;;;;;;12.71;81.50;98853.09;7363064;19;19923;-62
2023/12/07 08:44:42;;;;;;;;;;;;;;;12.71;81.21;98843.47;7334056;19;19999;-61
2023/12/07 08:47:08;;;;;;;;;;;;;;;12.73;81.40;98841.63;7365889;19;19918;-61
2023/12/07 08:49:33;;;;;;;;;;;;;;;12.76;81.51;98842.34;7358361;19;19942;-61
2023/12/07 08:51:58;;;;;;;;;;;;;;;12.78;81.47;98843.13;7365002;19;20835;-61
2023/12/07 08:54:23;;;;;;;;;;;;;;;12.79;81.16;98844.78;7360735;19;19914;-61
2023/12/07 08:56:49;;;;;;;;;;;;;;;12.81;81.42;98856.00;7363953;19;20637;-62
2023/12/07 08:59:14;;;;;;;;;;;;;;;12.83;81.43;98851.53;7370090;19;19925;-61
2023/12/07 09:01:39;;;;;;;;;;;;;;;12.83;81.35;98839.28;7370643;19;19921;-61
2023/12/07 09:04:05;;;;;;;;;;;;;;;12.86;81.27;98843.47;7362222;19;19919;-61
2023/12/07 09:06:30;;;;;;;;;;;;;;;12.88;81.51;98852.09;7364899;19;20719;-61
2023/12/07 09:08:55;;;;;;;;;;;;;;;12.90;81.39;98852.81;7363805;19;19922;-62
2023/12/07 09:11:21;;;;;;;;;;;;;;;12.89;81.14;98862.47;7367288;19;19936;-60
2023/12/07 09:13:46;;;;;;;;;;;;;;;12.91;81.13;98838.78;7363626;19;19918;-59
2023/12/07 09:16:11;;;;;;;;;;;;;;;12.92;81.44;98861.41;7361410;19;19918;-61
2023/12/07 09:18:36;;;;;;;;;;;;;;;12.93;81.12;98857.88;7370352;19;20000;-62
2023/12/07 09:21:02;;;;;;;;;;;;;;;12.94;81.19;98843.84;7361642;19;19940;-61
2023/12/07 09:23:28;;;;;;;;;;;;;;;12.93;81.01;98855.28;7360251;19;20294;-61
2023/12/07 09:25:53;;;;;;;;;;;;;;;12.93;81.14;98857.88;7355881;19;19926;-61
2023/12/07 09:28:18;;;;;;;;;;;;;;;12.95;81.25;98853.38;7362301;19;20458;-60
2023/12/07 09:30:44;;;;;;;;;;;;;;;12.96;81.38;98847.19;7363855;19;20412;-62
2023/12/07 09:33:09;;;;;;;;;;;;;;;12.96;80.99;98836.72;7364936;19;19917;-61
2023/12/07 09:35:34;;;;;;;;;;;;;;;12.96;81.22;98815.75;7360420;19;19922;-60
2023/12/07 09:38:00;;;;;;;;;;;;;;;12.96;81.05;98815.75;7359040;19;20442;-60
2023/12/07 09:40:26;;;;;;;;;;;;;;;12.96;81.05;98800.03;7361627;19;19914;-61
2023/12/07 09:42:51;;;;;;;;;;;;;;;12.95;81.02;98798.38;7362031;19;19928;-60
2023/12/07 09:45:18;;;;;;;;;;;;;;;12.94;81.40;98786.22;7361982;19;19936;-61
2023/12/07 09:47:47;;;;;;;;;;;;;;;12.93;81.05;98782.75;7356827;19;19929;-61
2023/12/07 09:50:15;;;;;;;;;;;;;;;12.92;81.05;98760.09;7364048;19;19925;-61
2023/12/07 09:52:40;;;;;;;;;;;;;;;12.92;81.46;98746.16;7364650;19;20842;-61
2023/12/07 09:55:06;;;;;;;;;;;;;;;12.91;81.38;98749.72;7370558;19;19931;-61
2023/12/07 09:57:32;;;;;;;;;;;;;;;12.91;81.41;98760.19;7368686;19;19917;-61
2023/12/07 09:59:58;;;;;;;;;;;;;;;12.92;81.21;98756.63;7361733;19;19915;-61
2023/12/07 10:02:24;;;;;;;;;;;;;;;12.92;81.65;98746.16;7356619;19;19910;-61
2023/12/07 10:05:04;;;;;;;;;;;;;;;12.87;81.36;98735.13;7361993;19;19950;-61
2023/12/07 10:07:34;;;;;;;;;;;;;;;12.92;81.30;98730.44;7362885;19;19910;-61
2023/12/07 10:09:59;;;;;;;;;;;;;;;12.80;81.48;98705.03;7363964;19;19971;-60
2023/12/07 10:12:25;;;;;;;;;;;;;;;12.93;81.76;98722.50;7359355;19;19922;-60
2023/12/07 10:14:50;;;;;;;;;;;;;;;12.94;81.74;98720.72;7363019;19;19919;-61
2023/12/07 10:17:15;;;;;;;;;;;;;;;12.94;81.58;98713.69;7363660;19;19961;-61
2023/12/07 10:19:41;;;;;;;;;;;;;;;12.96;81.84;98708.34;7361752;19;19926;-59
2023/12/07 10:22:13;;;;;;;;;;;;;;;12.97;81.60;98723.97;7355111;19;19917;-61
2023/12/07 10:24:38;;;;;;;;;;;;;;;12.98;81.55;98693.38;7359338;19;20281;-61
2023/12/07 10:27:06;;;;;;;;;;;;;;;13.01;82.00;98693.16;7350515;19;19922;-61
2023/12/07 10:29:34;;;;;;;;;;;;;;;13.03;81.86;98680.84;7357118;19;20402;-61
2023/12/07 10:32:02;;;;;;;;;;;;;;;13.04;82.00;98679.88;7358230;19;20539;-61
2023/12/07 10:34:28;;;;;;;;;;;;;;;13.05;81.75;98697.28;7356546;19;19927;-60
2023/12/07 10:36:55;;;;;;;;;;;;;;;13.07;81.83;98698.00;7361044;19;20599;-62
2023/12/07 10:39:21;;;;;;;;;;;;;;;13.10;82.10;98713.53;7357319;19;19935;-61
2023/12/07 10:41:48;;;;;;;;;;;;;;;13.12;81.77;98716.91;7361397;19;19990;-60
2023/12/07 10:44:13;;;;;;;;;;;;;;;13.14;81.65;98699.31;7359458;19;19927;-59
2023/12/07 10:46:41;;;;;;;;;;;;;;;13.16;81.96;98701.81;7361198;19;19935;-61
2023/12/07 10:49:08;;;;;;;;;;;;;;;13.18;82.14;98686.84;7358753;19;19930;-61
2023/12/07 10:51:49;;;;;;;;;;;;;;;13.20;81.77;98687.59;7361963;19;19932;-60
2023/12/07 10:54:16;;;;;;;;;;;;;;;13.21;82.21;98679.63;7361200;19;19922;-61
2023/12/07 10:56:45;;;;;;;;;;;;;;;13.23;81.85;98667.28;7356965;19;19918;-61
2023/12/07 10:59:11;;;;;;;;;;;;;;;13.24;82.04;98653.25;7358089;19;19927;-61
2023/12/07 11:01:40;;;;;;;;;;;;;;;13.28;81.74;98655.63;7358940;19;20346;-61
2023/12/07 11:04:06;;;;;;;;;;;;;;;13.30;81.74;98643.28;7359668;19;19927;-61
2023/12/07 11:06:31;;;;;;;;;;;;;;;13.32;81.85;98641.41;7356601;19;20322;-61
2023/12/07 11:09:27;;;;;;;;;;;;;;;13.33;81.72;98628.22;7359288;19;19922;-61
2023/12/07 11:11:57;;;;;;;;;;;;;;;13.35;81.61;98633.34;7359244;19;20591;-60
2023/12/07 11:14:22;;;;;;;;;;;;;;;13.36;82.02;98619.28;7357389;19;19933;-61
2023/12/07 11:16:47;;;;;;;;;;;;;;;13.37;81.73;98626.19;7359861;19;19918;-60
2023/12/07 11:19:39;;;;;;;;;;;;;;;13.38;81.66;98599.03;7361340;19;19922;-60
2023/12/07 11:22:10;;;;;;;;;;;;;;;13.39;81.55;98608.59;7357540;19;20010;-61
2023/12/07 11:24:36;;;;;;;;;;;;;;;13.41;81.59;98611.94;7361294;19;19950;-59
2023/12/07 11:27:01;;;;;;;;;;;;;;;13.41;81.59;98602.28;7353044;19;20417;-58
2023/12/07 11:29:30;;;;;;;;;;;;;;;13.40;81.89;98589.31;7360159;19;19921;-59
2023/12/07 11:31:57;;;;;;;;;;;;;;;13.41;81.59;98575.25;7360208;19;20650;-60
2023/12/07 11:34:41;;;;;;;;;;;;;;;13.39;81.82;98572.72;7357221;19;20355;-59
2023/12/07 11:37:07;;;;;;;;;;;;;;;13.39;81.72;98561.41;7358234;19;19937;-58
2023/12/07 11:39:41;;;;;;;;;;;;;;;13.38;81.69;98559.72;7353960;19;20398;-59
2023/12/07 11:42:08;;;;;;;;;;;;;;;13.37;81.84;98553.63;7359428;19;19927;-57
2023/12/07 11:44:34;;;;;;;;;;;;;;;13.36;81.70;98556.38;7357190;19;19915;-59
2023/12/07 11:47:00;;;;;;;;;;;;;;;13.36;81.67;98556.38;7362239;19;19923;-59
2023/12/07 11:49:26;;;;;;;;;;;;;;;13.35;81.73;98549.44;7351720;19;19917;-59
2023/12/07 11:51:51;;;;;;;;;;;;;;;13.34;81.88;98553.84;7355032;19;19930;-59
2023/12/07 11:54:17;;;;;;;;;;;;;;;13.34;81.83;98539.91;7360826;19;19941;-59
2023/12/07 11:56:42;;;;;;;;;;;;;;;13.32;81.49;98533.91;7359822;19;19931;-59
2023/12/07 11:59:08;;;;;;;;;;;;;;;13.31;81.50;98511.28;7354869;19;19922;-58
2023/12/07 12:01:33;;;;;;;;;;;;;;;13.30;81.90;98499.97;7363860;19;20536;-58
2023/12/07 12:03:58;;;;;;;;;;;;;;;13.30;81.85;98489.47;7353014;19;20272;-58
2023/12/07 12:06:24;;;;;;;;;;;;;;;13.30;81.55;98499.13;7355886;19;19919;-60
2023/12/07 12:08:49;;;;;;;;;;;;;;;13.29;81.59;98502.69;7363008;19;19936;-60
2023/12/07 12:11:14;;;;;;;;;;;;;;;13.29;81.77;98494.84;7364345;19;19915;-57
2023/12/07 12:13:40;;;;;;;;;;;;;;;13.29;81.93;98502.69;7365389;19;20211;-59
2023/12/07 12:16:06;;;;;;;;;;;;;;;13.28;81.49;98493.13;7360340;19;19926;-59
2023/12/07 12:18:32;;;;;;;;;;;;;;;13.27;82.00;98481.81;7364643;19;19947;-58
2023/12/07 12:20:59;;;;;;;;;;;;;;;13.27;81.76;98492.28;7362347;19;20822;-60
2023/12/07 12:23:24;;;;;;;;;;;;;;;13.26;81.56;98503.72;7366168;19;19918;-60
2023/12/07 12:25:49;;;;;;;;;;;;;;;13.27;81.69;98494.91;7359092;19;19923;-61
2023/12/07 12:28:16;;;;;;;;;;;;;;;13.29;81.91;98476.50;7366750;19;20247;-61
2023/12/07 12:30:42;;;;;;;;;;;;;;;13.29;81.73;98458.13;7364016;19;19922;-61
2023/12/07 12:33:07;;;;;;;;;;;;;;;13.30;81.74;98475.53;7366239;19;19942;-58
2023/12/07 12:35:32;;;;;;;;;;;;;;;13.30;81.88;98465.06;7360384;19;19950;-60
2023/12/07 12:37:58;;;;;;;;;;;;;;;13.30;81.79;98446.69;7362687;19;20453;-58
2023/12/07 12:40:24;;;;;;;;;;;;;;;13.30;81.71;98425.72;7363907;19;19960;-61